Time;durP1;ratioP1;P1;durP2;ratioP2;P2;SDS_P1;SDS_P2;PMS_P1;PMS_P2;Temp;Humidity;BMP_temperature;BMP_pressure;BME280_temperature;BME280_humidity;BME280_pressure;Samples;Min_cycle;Max_cycle;Signal;HPM_P1;HPM_P2
2022/03/16 00:02:19;;;;;;;;;;;256.50;1433.60;;;;;;5082225;28;19915;-78
2022/03/16 00:04:48;;;;;;;;;;;256.50;1433.60;;;;;;5084057;28;19961;-78
2022/03/16 00:07:15;;;;;;;;;;;256.50;1433.60;;;;;;5080165;28;19939;-78
2022/03/16 00:09:41;;;;;;;;;;;256.50;1408.00;;;;;;5083533;28;20374;-77
2022/03/16 00:12:06;;;;;;;;;;;256.50;1408.00;;;;;;5078757;28;19904;-78
2022/03/16 00:14:32;;;;;;;;;;;256.30;1408.00;;;;;;5078348;28;19904;-79
2022/03/16 00:16:58;;;;;;;;;;;256.30;1408.00;;;;;;5080506;28;20006;-78
2022/03/16 00:19:23;;;;;;;;;;;256.30;1408.00;;;;;;5082168;28;20272;-78
2022/03/16 00:21:49;;;;;;;;;;;256.20;1408.00;;;;;;5083669;28;19987;-78
2022/03/16 00:24:14;;;;;;;;;;;256.20;1408.00;;;;;;5086486;28;19905;-78
2022/03/16 00:26:40;;;;;;;;;;;256.10;1408.00;;;;;;5081933;28;19904;-78
2022/03/16 00:29:05;;;;;;;;;;;256.10;1408.00;;;;;;5087503;28;19998;-78
2022/03/16 00:31:31;;;;;;;;;;;256.10;1408.00;;;;;;5085877;28;20284;-78
2022/03/16 00:33:57;;;;;;;;;;;256.10;1408.00;;;;;;5085111;28;20425;-78
2022/03/16 00:36:23;;;;;;;;;;;256.10;1408.00;;;;;;5085666;28;19904;-78
2022/03/16 00:38:49;;;;;;;;;;;256.20;1408.00;;;;;;5086246;28;20386;-78
2022/03/16 00:41:15;;;;;;;;;;;256.10;1408.00;;;;;;5084522;28;19911;-78
2022/03/16 00:43:41;;;;;;;;;;;256.10;1408.00;;;;;;5086609;28;19974;-78
2022/03/16 00:46:07;;;;;;;;;;;256.00;1408.00;;;;;;5085061;28;20501;-78
2022/03/16 00:48:33;;;;;;;;;;;256.10;1408.00;;;;;;5085647;28;19904;-78
2022/03/16 00:50:58;;;;;;;;;;;256.10;1433.60;;;;;;5087420;28;19916;-78
2022/03/16 00:53:24;;;;;;;;;;;256.20;1433.60;;;;;;5085135;28;19998;-79
2022/03/16 00:55:49;;;;;;;;;;;256.20;1408.00;;;;;;5083306;28;19911;-78
2022/03/16 00:58:15;;;;;;;;;;;256.10;1433.60;;;;;;5086362;28;20463;-78
2022/03/16 01:00:41;;;;;;;;;;;256.10;1433.60;;;;;;5088297;28;19912;-78
2022/03/16 01:03:06;;;;;;;;;;;256.10;1433.60;;;;;;5084937;28;19916;-78
2022/03/16 01:05:32;;;;;;;;;;;256.10;1433.60;;;;;;5085703;28;19904;-78
2022/03/16 01:07:57;;;;;;;;;;;256.00;1433.60;;;;;;5079166;28;19908;-79
2022/03/16 01:10:23;;;;;;;;;;;256.00;1433.60;;;;;;5084113;28;19908;-78
2022/03/16 01:12:48;;;;;;;;;;;256.10;1433.60;;;;;;5086567;28;20304;-77
2022/03/16 01:15:14;;;;;;;;;;;256.10;1433.60;;;;;;5084812;28;19904;-78
2022/03/16 01:17:40;;;;;;;;;;;256.10;1433.60;;;;;;5085736;28;19908;-77
2022/03/16 01:20:06;;;;;;;;;;;256.10;1408.00;;;;;;5080958;28;20313;-78
2022/03/16 01:22:32;;;;;;;;;;;256.10;1433.60;;;;;;5083566;28;19904;-78
2022/03/16 01:24:57;;;;;;;;;;;256.20;1408.00;;;;;;5084900;28;19905;-78
2022/03/16 01:27:23;;;;;;;;;;;256.20;1408.00;;;;;;5084902;28;19950;-78
2022/03/16 01:29:48;;;;;;;;;;;256.20;1408.00;;;;;;5077840;28;20380;-78
2022/03/16 01:32:14;;;;;;;;;;;256.10;1408.00;;;;;;5077639;28;19931;-78
2022/03/16 01:34:39;;;;;;;;;;;256.30;1408.00;;;;;;5080087;28;19908;-78
2022/03/16 01:37:05;;;;;;;;;;;256.50;1382.40;;;;;;5085855;28;19912;-78
2022/03/16 01:39:31;;;;;;;;;;;256.30;1408.00;;;;;;5083878;28;19904;-78
2022/03/16 01:41:57;;;;;;;;;;;256.30;1408.00;;;;;;5087099;28;20429;-78
2022/03/16 01:44:41;;;;;;;;;;;256.30;1408.00;;;;;;5085013;28;19904;-77
2022/03/16 01:47:07;;;;;;;;;;;256.40;1408.00;;;;;;5084970;28;19904;-79
2022/03/16 01:49:32;;;;;;;;;;;256.30;1408.00;;;;;;5083415;28;19904;-78
2022/03/16 01:51:58;;;;;;;;;;;256.20;1433.60;;;;;;5086241;28;19915;-78
2022/03/16 01:54:24;;;;;;;;;;;256.20;1433.60;;;;;;5079077;28;20348;-78
2022/03/16 01:56:49;;;;;;;;;;;256.10;1433.60;;;;;;5081898;28;19912;-78
2022/03/16 01:59:15;;;;;;;;;;;256.20;1433.60;;;;;;5085640;28;19942;-78
2022/03/16 02:01:40;;;;;;;;;;;256.40;1408.00;;;;;;5083409;28;20359;-77
2022/03/16 02:04:06;;;;;;;;;;;256.40;1408.00;;;;;;5084229;28;19912;-78
2022/03/16 02:06:32;;;;;;;;;;;256.20;1433.60;;;;;;5081596;28;19912;-78
2022/03/16 02:08:57;;;;;;;;;;;256.20;1433.60;;;;;;5082411;28;19905;-78
2022/03/16 02:11:23;;;;;;;;;;;256.10;1433.60;;;;;;5084395;28;20380;-78
2022/03/16 02:13:48;;;;;;;;;;;256.20;1433.60;;;;;;5083965;28;19935;-78
2022/03/16 02:16:14;;;;;;;;;;;256.10;1433.60;;;;;;5082269;28;19983;-78
2022/03/16 02:18:39;;;;;;;;;;;256.10;1433.60;;;;;;5083711;28;19911;-78
2022/03/16 02:21:06;;;;;;;;;;;256.10;1433.60;;;;;;5085621;28;19908;-79
2022/03/16 02:23:31;;;;;;;;;;;256.20;1408.00;;;;;;5081193;28;19911;-77
2022/03/16 02:25:57;;;;;;;;;;;256.20;1433.60;;;;;;5083382;28;19908;-78
2022/03/16 02:28:24;;;;;;;;;;;256.20;1408.00;;;;;;5082934;28;19998;-78
2022/03/16 02:30:50;;;;;;;;;;;256.20;1408.00;;;;;;5083019;28;19994;-78
2022/03/16 02:33:16;;;;;;;;;;;256.20;1408.00;;;;;;5083977;28;20336;-78
2022/03/16 02:35:42;;;;;;;;;;;256.20;1433.60;;;;;;5079904;28;20368;-78
2022/03/16 02:38:07;;;;;;;;;;;256.10;1433.60;;;;;;5082454;28;19904;-79
2022/03/16 02:40:33;;;;;;;;;;;256.10;1433.60;;;;;;5085240;28;19904;-78
2022/03/16 02:42:59;;;;;;;;;;;256.10;1459.20;;;;;;5082058;28;19958;-78
2022/03/16 02:45:24;;;;;;;;;;;256.10;1459.20;;;;;;5082021;28;20320;-78
2022/03/16 02:47:50;;;;;;;;;;;256.10;1459.20;;;;;;5083219;28;19904;-78
2022/03/16 02:50:17;;;;;;;;;;;256.20;1484.80;;;;;;5084850;28;19920;-78
2022/03/16 02:52:44;;;;;;;;;;;256.00;1484.80;;;;;;5082364;28;19920;-78
2022/03/16 02:55:10;;;;;;;;;;;231.30;1484.80;;;;;;5084467;28;19947;-78
2022/03/16 02:57:36;;;;;;;;;;;231.30;1510.40;;;;;;5081318;28;19947;-78
2022/03/16 03:00:03;;;;;;;;;;;256.00;1510.40;;;;;;5084136;28;20344;-77
2022/03/16 03:02:28;;;;;;;;;;;256.00;1510.40;;;;;;5084105;28;19908;-78
2022/03/16 03:04:54;;;;;;;;;;;256.00;1510.40;;;;;;5081456;28;20379;-78
2022/03/16 03:07:19;;;;;;;;;;;256.00;1510.40;;;;;;5082563;28;19949;-78
2022/03/16 03:09:45;;;;;;;;;;;231.20;1536.00;;;;;;5083662;28;19911;-78
2022/03/16 03:12:10;;;;;;;;;;;231.20;1536.00;;;;;;5080608;28;20440;-78
2022/03/16 03:14:36;;;;;;;;;;;231.20;1536.00;;;;;;5082953;28;19914;-78
2022/03/16 03:17:02;;;;;;;;;;;231.30;1536.00;;;;;;5081721;28;19927;-78
2022/03/16 03:19:27;;;;;;;;;;;256.00;1536.00;;;;;;5075135;28;19944;-78
2022/03/16 03:21:53;;;;;;;;;;;231.30;1536.00;;;;;;5085572;28;20759;-78
2022/03/16 03:24:19;;;;;;;;;;;231.20;1561.60;;;;;;5080369;28;19904;-78
2022/03/16 03:26:44;;;;;;;;;;;231.20;1561.60;;;;;;5080404;28;19904;-78
2022/03/16 03:29:10;;;;;;;;;;;231.30;1536.00;;;;;;5082644;28;19904;-78
2022/03/16 03:31:36;;;;;;;;;;;231.30;1536.00;;;;;;5081019;28;20357;-78
2022/03/16 03:34:02;;;;;;;;;;;231.30;1536.00;;;;;;5083902;28;19916;-78
2022/03/16 03:36:27;;;;;;;;;;;256.00;1536.00;;;;;;5082369;28;19911;-78
2022/03/16 03:38:53;;;;;;;;;;;256.10;1536.00;;;;;;5081468;28;19908;-78
2022/03/16 03:41:19;;;;;;;;;;;256.10;1536.00;;;;;;5082861;28;19904;-78
2022/03/16 03:43:44;;;;;;;;;;;256.00;1536.00;;;;;;5081718;28;19910;-78
2022/03/16 03:46:10;;;;;;;;;;;256.00;1536.00;;;;;;5081479;28;19927;-78
2022/03/16 03:48:36;;;;;;;;;;;256.00;1536.00;;;;;;5082943;28;19978;-78
2022/03/16 03:51:01;;;;;;;;;;;256.00;1561.60;;;;;;5080476;28;20386;-78
2022/03/16 03:53:27;;;;;;;;;;;231.30;1561.60;;;;;;5081680;28;19962;-78
2022/03/16 03:55:53;;;;;;;;;;;231.20;1587.20;;;;;;5078388;28;19949;-78
2022/03/16 03:58:18;;;;;;;;;;;231.20;1587.20;;;;;;5085374;28;20257;-78
2022/03/16 04:00:44;;;;;;;;;;;231.20;1587.20;;;;;;5084863;28;19908;-78
2022/03/16 04:03:09;;;;;;;;;;;231.20;1587.20;;;;;;5082700;28;19978;-78
2022/03/16 04:05:35;;;;;;;;;;;231.20;1587.20;;;;;;5085328;28;21470;-78
2022/03/16 04:08:01;;;;;;;;;;;231.20;1612.80;;;;;;5083941;28;19930;-78
2022/03/16 04:10:26;;;;;;;;;;;256.00;1612.80;;;;;;5087576;28;19961;-77
2022/03/16 04:12:52;;;;;;;;;;;231.30;1587.20;;;;;;5086171;28;20278;-78
2022/03/16 04:15:20;;;;;;;;;;;256.10;1587.20;;;;;;5089537;28;19904;-78
2022/03/16 04:17:47;;;;;;;;;;;256.00;1587.20;;;;;;5086443;28;20292;-78
2022/03/16 04:20:12;;;;;;;;;;;256.00;1587.20;;;;;;5085592;28;19910;-78
2022/03/16 04:22:38;;;;;;;;;;;231.30;1587.20;;;;;;5086487;28;19994;-78
2022/03/16 04:25:04;;;;;;;;;;;256.00;1612.80;;;;;;5087247;28;19912;-78
2022/03/16 04:27:29;;;;;;;;;;;231.20;1612.80;;;;;;5083693;28;19938;-78
2022/03/16 04:29:55;;;;;;;;;;;231.10;1638.40;;;;;;5085934;28;19985;-78
2022/03/16 04:32:21;;;;;;;;;;;231.00;1638.40;;;;;;5085338;28;19913;-78
2022/03/16 04:34:47;;;;;;;;;;;231.10;1664.00;;;;;;5082372;28;19912;-78
2022/03/16 04:37:12;;;;;;;;;;;231.10;1664.00;;;;;;5082668;28;19943;-78
2022/03/16 04:39:38;;;;;;;;;;;231.20;1638.40;;;;;;5083823;28;19963;-77
2022/03/16 04:42:04;;;;;;;;;;;231.10;1638.40;;;;;;5085395;28;19904;-78
2022/03/16 04:44:29;;;;;;;;;;;231.20;1638.40;;;;;;5086060;28;20318;-78
2022/03/16 04:46:55;;;;;;;;;;;231.20;1664.00;;;;;;5087000;28;19911;-78
2022/03/16 04:49:20;;;;;;;;;;;231.10;1664.00;;;;;;5086262;28;19986;-78
2022/03/16 04:51:46;;;;;;;;;;;231.20;1664.00;;;;;;5085476;28;19924;-78
2022/03/16 04:54:14;;;;;;;;;;;231.00;1689.60;;;;;;5084881;28;19915;-78
2022/03/16 04:56:40;;;;;;;;;;;231.10;1689.60;;;;;;5085865;28;19904;-77
2022/03/16 04:59:05;;;;;;;;;;;231.20;1689.60;;;;;;5083967;28;19982;-78
2022/03/16 05:01:31;;;;;;;;;;;231.10;1689.60;;;;;;5087516;28;19908;-78
2022/03/16 05:03:57;;;;;;;;;;;256.00;1664.00;;;;;;5087838;28;19944;-78
2022/03/16 05:06:22;;;;;;;;;;;256.10;1664.00;;;;;;5083020;28;20360;-78
2022/03/16 05:08:48;;;;;;;;;;;256.10;1664.00;;;;;;5085241;28;19904;-78
2022/03/16 05:11:14;;;;;;;;;;;256.20;1664.00;;;;;;5085899;28;19912;-78
2022/03/16 05:13:40;;;;;;;;;;;231.30;1664.00;;;;;;5084441;28;19912;-78
2022/03/16 05:16:06;;;;;;;;;;;231.30;1689.60;;;;;;5085437;28;19956;-78
2022/03/16 05:18:33;;;;;;;;;;;231.10;1689.60;;;;;;5084149;28;19905;-78
2022/03/16 05:20:58;;;;;;;;;;;231.00;1715.20;;;;;;5086222;28;19905;-78
2022/03/16 05:23:24;;;;;;;;;;;231.10;1715.20;;;;;;5086713;28;19904;-78
2022/03/16 05:25:49;;;;;;;;;;;231.20;1715.20;;;;;;5084078;28;19912;-78
2022/03/16 05:28:16;;;;;;;;;;;231.30;1689.60;;;;;;5083860;28;19908;-77
2022/03/16 05:30:42;;;;;;;;;;;256.10;1689.60;;;;;;5084697;28;20324;-78
2022/03/16 05:33:08;;;;;;;;;;;256.20;1766.40;;;;;;5086477;28;20012;-79
2022/03/16 05:35:33;;;;;;;;;;;256.10;1817.60;;;;;;5085566;28;19986;-78
2022/03/16 05:38:02;;;;;;;;;;;256.40;1792.00;;;;;;5084500;28;19912;-78
2022/03/16 05:40:28;;;;;;;;;;;256.30;1843.20;;;;;;5079759;28;19939;-78
2022/03/16 05:42:53;;;;;;;;;;;256.30;1843.20;;;;;;5084962;28;19940;-78
2022/03/16 05:45:19;;;;;;;;;;;256.30;1817.60;;;;;;5083213;28;19911;-78
2022/03/16 05:47:44;;;;;;;;;;;256.30;1792.00;;;;;;5083857;28;19905;-78
2022/03/16 05:50:10;;;;;;;;;;;256.40;1792.00;;;;;;5085397;28;20002;-78
2022/03/16 05:52:36;;;;;;;;;;;256.40;1792.00;;;;;;5084850;28;19948;-78
2022/03/16 05:55:01;;;;;;;;;;;256.20;1843.20;;;;;;5083019;28;19927;-78
2022/03/16 05:57:27;;;;;;;;;;;256.10;1894.40;;;;;;5085991;28;19936;-78
2022/03/16 05:59:53;;;;;;;;;;;256.30;1868.80;;;;;;5084829;28;19904;-77
2022/03/16 06:02:18;;;;;;;;;;;256.50;1868.80;;;;;;5082275;28;19934;-78
2022/03/16 06:04:44;;;;;;;;;;;256.60;1868.80;;;;;;5082284;28;19905;-78
2022/03/16 06:07:10;;;;;;;;;;;256.80;1868.80;;;;;;5084134;28;19915;-78
2022/03/16 06:09:35;;;;;;;;;;;256.70;1894.40;;;;;;5083533;28;19995;-78
2022/03/16 06:12:02;;;;;;;;;;;256.40;1920.00;;;;;;5085123;28;19904;-78
2022/03/16 06:14:28;;;;;;;;;;;256.60;1945.60;;;;;;5081951;28;19912;-78
2022/03/16 06:16:53;;;;;;;;;;;256.70;1920.00;;;;;;5083408;28;19904;-78
2022/03/16 06:19:19;;;;;;;;;;;256.90;1920.00;;;;;;5083654;28;19911;-78
2022/03/16 06:21:45;;;;;;;;;;;256.70;1971.20;;;;;;5081606;28;19904;-78
2022/03/16 06:24:11;;;;;;;;;;;256.40;2022.40;;;;;;5082348;28;20310;-78
2022/03/16 06:26:39;;;;;;;;;;;256.40;2022.40;;;;;;5083113;28;19908;-78
2022/03/16 06:29:05;;;;;;;;;;;256.20;2073.60;;;;;;5083893;28;19954;-78
2022/03/16 06:31:30;;;;;;;;;;;256.00;2099.20;;;;;;5082184;28;19908;-78
2022/03/16 06:33:56;;;;;;;;;;;256.00;2099.20;;;;;;5083585;28;20425;-79
2022/03/16 06:36:21;;;;;;;;;;;256.00;2150.40;;;;;;5084936;28;19904;-78
2022/03/16 06:38:47;;;;;;;;;;;256.50;2073.60;;;;;;5081524;28;19909;-77
2022/03/16 06:41:12;;;;;;;;;;;256.50;2124.80;;;;;;5081872;28;19959;-78
2022/03/16 06:43:38;;;;;;;;;;;256.40;2150.40;;;;;;5083806;28;19926;-78
2022/03/16 06:46:04;;;;;;;;;;;256.60;2099.20;;;;;;5085090;28;19912;-78
2022/03/16 06:48:29;;;;;;;;;;;256.90;2048.00;;;;;;5081645;28;20040;-78
2022/03/16 06:50:55;;;;;;;;;;;281.80;2022.40;;;;;;5083756;28;19916;-78
2022/03/16 06:53:20;;;;;;;;;;;281.90;2099.20;;;;;;5083732;28;19915;-77
2022/03/16 06:55:46;;;;;;;;;;;281.80;2073.60;;;;;;5074548;28;19904;-80
2022/03/16 06:58:13;;;;;;;;;;;281.90;2099.20;;;;;;5057611;28;19995;-78
2022/03/16 07:00:38;;;;;;;;;;;282.10;2022.40;;;;;;5069294;28;19958;-78
2022/03/16 07:03:05;;;;;;;;;;;282.30;1971.20;;;;;;5054107;28;19913;-75
2022/03/16 07:05:32;;;;;;;;;;;282.30;1945.60;;;;;;5052654;28;19940;-75
2022/03/16 07:07:59;;;;;;;;;;;282.30;1920.00;;;;;;5087729;28;19994;-75
2022/03/16 07:10:25;;;;;;;;;;;282.00;1971.20;;;;;;5073874;28;19908;-76
2022/03/16 07:12:50;;;;;;;;;;;282.20;1996.80;;;;;;5072459;28;19912;-75
2022/03/16 07:15:16;;;;;;;;;;;282.30;1920.00;;;;;;5072514;28;19970;-75
2022/03/16 07:17:41;;;;;;;;;;;282.30;1945.60;;;;;;5073886;28;19994;-77
2022/03/16 07:20:07;;;;;;;;;;;282.10;2022.40;;;;;;5073811;28;19904;-76
2022/03/16 07:22:34;;;;;;;;;;;282.10;2048.00;;;;;;5072499;28;19904;-76
2022/03/16 07:25:01;;;;;;;;;;;282.30;2022.40;;;;;;5073623;28;19958;-77
2022/03/16 07:27:26;;;;;;;;;;;282.30;2022.40;;;;;;5073769;28;19908;-78
2022/03/16 07:29:52;;;;;;;;;;;282.20;2022.40;;;;;;5073708;28;19904;-75
2022/03/16 07:32:17;;;;;;;;;;;282.40;1971.20;;;;;;5074342;28;19916;-75
2022/03/16 07:34:43;;;;;;;;;;;282.50;1971.20;;;;;;5076730;28;19911;-78
2022/03/16 07:37:09;;;;;;;;;;;282.50;2022.40;;;;;;5076647;28;20410;-76
2022/03/16 07:39:34;;;;;;;;;;;307.30;1996.80;;;;;;5077775;28;19904;-78
2022/03/16 07:42:00;;;;;;;;;;;307.40;1971.20;;;;;;5078884;28;19904;-77
2022/03/16 07:44:26;;;;;;;;;;;307.60;1920.00;;;;;;5081531;28;19959;-78
2022/03/16 07:46:51;;;;;;;;;;;307.70;1894.40;;;;;;5079515;28;19915;-77
2022/03/16 07:49:17;;;;;;;;;;;307.70;1920.00;;;;;;5086368;28;19904;-75
2022/03/16 07:51:42;;;;;;;;;;;307.80;1894.40;;;;;;5086254;28;19962;-76
2022/03/16 07:54:08;;;;;;;;;;;307.90;1894.40;;;;;;5087377;28;19912;-75
2022/03/16 07:56:34;;;;;;;;;;;308.00;1894.40;;;;;;5082928;28;19931;-76
2022/03/16 07:59:01;;;;;;;;;;;308.00;1920.00;;;;;;5076802;28;19905;-78
2022/03/16 08:01:27;;;;;;;;;;;308.00;1868.80;;;;;;5076789;28;19912;-77
2022/03/16 08:03:53;;;;;;;;;;;308.00;1868.80;;;;;;5086733;28;19912;-78
2022/03/16 08:06:18;;;;;;;;;;;308.00;1817.60;;;;;;5096277;28;19910;-75
2022/03/16 08:08:44;;;;;;;;;;;308.10;1817.60;;;;;;5096199;28;19904;-75
2022/03/16 08:11:09;;;;;;;;;;;332.80;1868.80;;;;;;5096304;28;19904;-75
2022/03/16 08:13:38;;;;;;;;;;;308.10;1843.20;;;;;;5097273;28;19912;-78
2022/03/16 08:16:04;;;;;;;;;;;332.80;1868.80;;;;;;5095921;28;20280;-77
2022/03/16 08:18:30;;;;;;;;;;;332.80;1843.20;;;;;;5096046;28;19904;-78
2022/03/16 08:20:56;;;;;;;;;;;332.90;1843.20;;;;;;5097248;28;19904;-75
2022/03/16 08:23:22;;;;;;;;;;;333.00;1843.20;;;;;;5097233;28;19946;-79
2022/03/16 08:25:47;;;;;;;;;;;333.10;1843.20;;;;;;5097140;28;19911;-78
2022/03/16 08:28:13;;;;;;;;;;;333.20;1843.20;;;;;;5095857;28;19912;-77
2022/03/16 08:30:40;;;;;;;;;;;333.20;1843.20;;;;;;5096764;28;20364;-76
2022/03/16 08:33:05;;;;;;;;;;;333.20;1817.60;;;;;;5095746;28;19912;-77
2022/03/16 08:35:31;;;;;;;;;;;333.30;1766.40;;;;;;5096921;28;19911;-79
2022/03/16 08:37:57;;;;;;;;;;;333.40;1689.60;;;;;;5097043;28;19912;-76
2022/03/16 08:40:22;;;;;;;;;;;333.50;1638.40;;;;;;5095710;28;19904;-79
2022/03/16 08:42:49;;;;;;;;;;;333.50;1638.40;;;;;;5096842;28;19923;-75
2022/03/16 08:45:15;;;;;;;;;;;333.60;1612.80;;;;;;5096819;28;19943;-77
2022/03/16 08:47:41;;;;;;;;;;;333.70;1612.80;;;;;;5095553;28;19999;-78
2022/03/16 08:50:07;;;;;;;;;;;333.70;1638.40;;;;;;5096747;28;19967;-76
2022/03/16 08:52:32;;;;;;;;;;;358.40;1638.40;;;;;;5096403;28;19916;-75
2022/03/16 08:54:59;;;;;;;;;;;358.40;1612.80;;;;;;5096730;28;19912;-78
2022/03/16 08:57:24;;;;;;;;;;;358.50;1587.20;;;;;;5096502;28;19998;-80
2022/03/16 08:59:50;;;;;;;;;;;358.50;1561.60;;;;;;5096348;28;19958;-77
2022/03/16 09:02:16;;;;;;;;;;;358.50;1561.60;;;;;;5096599;28;20364;-77
2022/03/16 09:04:41;;;;;;;;;;;358.50;1561.60;;;;;;5095206;28;19912;-75
2022/03/16 09:07:07;;;;;;;;;;;358.50;1561.60;;;;;;5095032;28;19942;-76
2022/03/16 09:09:33;;;;;;;;;;;358.50;1561.60;;;;;;5095195;28;20336;-76
2022/03/16 09:11:59;;;;;;;;;;;358.50;1536.00;;;;;;5096262;28;19904;-76
2022/03/16 09:14:25;;;;;;;;;;;358.50;1536.00;;;;;;5096610;28;19981;-75
2022/03/16 09:16:50;;;;;;;;;;;358.50;1536.00;;;;;;5096202;28;19971;-77
2022/03/16 09:19:20;;;;;;;;;;;358.60;1536.00;;;;;;5096333;28;20429;-78
2022/03/16 09:21:47;;;;;;;;;;;358.60;1561.60;;;;;;5096149;28;19904;-77
2022/03/16 09:24:13;;;;;;;;;;;358.50;1561.60;;;;;;5095996;28;19911;-78
2022/03/16 09:26:39;;;;;;;;;;;358.50;1561.60;;;;;;5085803;28;19999;-76
2022/03/16 09:29:08;;;;;;;;;;;358.50;1587.20;;;;;;5086260;28;19911;-76
2022/03/16 09:31:35;;;;;;;;;;;358.50;1587.20;;;;;;5082896;28;19915;-77
2022/03/16 09:34:01;;;;;;;;;;;358.60;1561.60;;;;;;5094420;28;19920;-76
2022/03/16 09:36:27;;;;;;;;;;;358.60;1587.20;;;;;;5095690;28;20049;-76
2022/03/16 09:38:55;;;;;;;;;;;358.50;1612.80;;;;;;5094587;28;20057;-78
2022/03/16 09:41:21;;;;;;;;;;;358.50;1664.00;;;;;;5095812;28;19904;-78
2022/03/16 09:43:48;;;;;;;;;;;358.50;1689.60;;;;;;5094485;28;20028;-77
2022/03/16 09:46:16;;;;;;;;;;;358.40;1740.80;;;;;;5093803;28;19935;-78
2022/03/16 09:48:41;;;;;;;;;;;358.40;1792.00;;;;;;5094497;28;19912;-76
2022/03/16 09:51:09;;;;;;;;;;;333.70;1843.20;;;;;;5095388;28;19916;-79
2022/03/16 09:53:35;;;;;;;;;;;333.70;1868.80;;;;;;5095424;28;20270;-75
2022/03/16 09:56:00;;;;;;;;;;;333.60;1920.00;;;;;;5094916;28;19904;-75
2022/03/16 09:58:26;;;;;;;;;;;333.50;1996.80;;;;;;5095228;28;19965;-76
2022/03/16 10:00:58;;;;;;;;;;;333.60;2022.40;;;;;;5095142;28;19914;-76
2022/03/16 10:03:31;;;;;;;;;;;333.70;2048.00;;;;;;5095401;28;19908;-76
2022/03/16 10:05:57;;;;;;;;;;;333.70;2022.40;;;;;;5082206;28;19919;-79
2022/03/16 10:08:30;;;;;;;;;;;333.70;2048.00;;;;;;5085585;28;19916;-75
2022/03/16 10:13:51;;;;;;;;;;;333.70;2048.00;;;;;;5072087;28;19935;-76
2022/03/16 10:16:16;;;;;;;;;;;333.50;2099.20;;;;;;5074727;28;19962;-76
2022/03/16 10:18:46;;;;;;;;;;;333.60;2073.60;;;;;;5073557;28;19909;-76
2022/03/16 10:21:12;;;;;;;;;;;333.60;2124.80;;;;;;5074859;28;19947;-77
2022/03/16 10:23:39;;;;;;;;;;;333.50;2073.60;;;;;;5074648;28;19911;-75
2022/03/16 10:26:05;;;;;;;;;;;333.50;2073.60;;;;;;5074594;28;19904;-75
2022/03/16 10:28:31;;;;;;;;;;;333.70;2048.00;;;;;;5074633;28;20356;-76
2022/03/16 10:31:02;;;;;;;;;;;333.70;2048.00;;;;;;5074308;28;20287;-75
2022/03/16 10:33:29;;;;;;;;;;;333.70;2048.00;;;;;;5074348;28;19916;-75
2022/03/16 10:36:09;;;;;;;;;;;333.60;2099.20;;;;;;5074383;28;20019;-76
2022/03/16 10:38:37;;;;;;;;;;;333.70;2124.80;;;;;;5074340;28;19904;-77
2022/03/16 10:41:12;;;;;;;;;;;333.70;2201.60;;;;;;5074356;28;19905;-75
2022/03/16 10:46:40;;;;;;;;;;;333.50;2329.60;;;;;;5074076;28;20371;-78
2022/03/16 10:49:10;;;;;;;;;;;333.40;2329.60;;;;;;5072992;28;19904;-79
2022/03/16 10:51:36;;;;;;;;;;;333.50;2304.00;;;;;;5073969;28;19916;-75
2022/03/16 10:54:02;;;;;;;;;;;333.40;2329.60;;;;;;5084568;28;20065;-79
2022/03/16 10:56:28;;;;;;;;;;;333.50;2304.00;;;;;;5084050;28;19911;-78
2022/03/16 10:58:54;;;;;;;;;;;333.30;2329.60;;;;;;5075987;28;19905;-77
2022/03/16 11:01:20;;;;;;;;;;;333.20;2329.60;;;;;;5073348;28;19966;-76
2022/03/16 11:03:50;;;;;;;;;;;333.10;2329.60;;;;;;5086012;28;19908;-78
2022/03/16 11:06:18;;;;;;;;;;;333.20;2329.60;;;;;;5077534;28;19927;-79
2022/03/16 11:08:44;;;;;;;;;;;333.20;2329.60;;;;;;5072198;28;20360;-76
2022/03/16 11:13:54;;;;;;;;;;;333.30;2329.60;;;;;;5073786;28;20023;-79
2022/03/16 11:16:20;;;;;;;;;;;333.40;2329.60;;;;;;5073862;28;19944;-76
2022/03/16 11:18:50;;;;;;;;;;;333.50;2329.60;;;;;;5074088;28;19905;-77
2022/03/16 11:21:23;;;;;;;;;;;333.60;2329.60;;;;;;5074137;28;20360;-79
2022/03/16 11:26:46;;;;;;;;;;;333.50;2329.60;;;;;;5073918;28;20414;-79
2022/03/16 11:29:12;;;;;;;;;;;333.40;2329.60;;;;;;5073691;28;20006;-75
2022/03/16 11:31:39;;;;;;;;;;;333.40;2329.60;;;;;;5073526;28;19993;-77
2022/03/16 11:34:08;;;;;;;;;;;333.40;2329.60;;;;;;5073618;28;19939;-76
2022/03/16 11:36:40;;;;;;;;;;;333.40;2329.60;;;;;;5073771;28;19904;-75
2022/03/16 11:39:16;;;;;;;;;;;333.40;2329.60;;;;;;5073869;28;19904;-76
2022/03/16 11:41:49;;;;;;;;;;;333.30;2329.60;;;;;;5073653;28;19950;-76
2022/03/16 11:44:25;;;;;;;;;;;333.30;2329.60;;;;;;5073786;28;19908;-79
2022/03/16 11:46:51;;;;;;;;;;;333.30;2329.60;;;;;;5072204;28;19912;-76
2022/03/16 11:49:29;;;;;;;;;;;333.40;2329.60;;;;;;5073685;28;19908;-77
2022/03/16 11:52:02;;;;;;;;;;;333.40;2329.60;;;;;;5072171;28;20352;-80
2022/03/16 11:54:40;;;;;;;;;;;333.50;2329.60;;;;;;5073500;28;19912;-75
2022/03/16 11:57:06;;;;;;;;;;;333.60;2329.60;;;;;;5075537;28;19955;-75
2022/03/16 11:59:33;;;;;;;;;;;333.60;2329.60;;;;;;5083379;28;19904;-75
2022/03/16 12:02:12;;;;;;;;;;;333.70;2329.60;;;;;;5081078;28;19908;-75
2022/03/16 12:04:46;;;;;;;;;;;333.60;2329.60;;;;;;5081251;28;20389;-77
2022/03/16 12:07:14;;;;;;;;;;;333.50;2329.60;;;;;;5078339;28;19904;-75
2022/03/16 12:09:44;;;;;;;;;;;333.40;2329.60;;;;;;5083800;28;19908;-75
2022/03/16 12:14:58;;;;;;;;;;;333.50;2329.60;;;;;;5074138;28;19923;-78
2022/03/16 12:17:24;;;;;;;;;;;333.50;2329.60;;;;;;5083796;28;19911;-74
2022/03/16 12:20:10;;;;;;;;;;;333.50;2329.60;;;;;;5085571;28;19991;-75
2022/03/16 12:22:36;;;;;;;;;;;333.50;2329.60;;;;;;5075814;28;19906;-75
2022/03/16 12:25:26;;;;;;;;;;;333.40;2329.60;;;;;;5061218;28;19948;-74
2022/03/16 12:30:48;;;;;;;;;;;333.30;2329.60;;;;;;5085490;28;19919;-75
2022/03/16 12:33:19;;;;;;;;;;;333.30;2329.60;;;;;;5085126;28;19912;-79
2022/03/16 12:35:58;;;;;;;;;;;333.30;2329.60;;;;;;5086440;28;19904;-78
2022/03/16 12:38:26;;;;;;;;;;;333.30;2329.60;;;;;;5084371;28;19911;-79
2022/03/16 12:43:37;;;;;;;;;;;333.30;2329.60;;;;;;5087677;28;19911;-75
2022/03/16 12:46:15;;;;;;;;;;;333.10;2329.60;;;;;;5091678;28;19950;-75
2022/03/16 12:48:41;;;;;;;;;;;333.10;2329.60;;;;;;5095836;28;19908;-79
2022/03/16 12:51:06;;;;;;;;;;;333.10;2329.60;;;;;;5096711;28;19919;-76
2022/03/16 12:53:37;;;;;;;;;;;333.10;2329.60;;;;;;5096747;28;19912;-80
2022/03/16 12:56:03;;;;;;;;;;;333.20;2329.60;;;;;;5097025;28;19904;-76
2022/03/16 12:58:29;;;;;;;;;;;333.10;2329.60;;;;;;5090562;28;19962;-77
2022/03/16 13:00:58;;;;;;;;;;;333.10;2329.60;;;;;;5086660;28;19915;-77
2022/03/16 13:03:24;;;;;;;;;;;333.00;2329.60;;;;;;5085776;28;20372;-75
2022/03/16 13:05:50;;;;;;;;;;;333.00;2329.60;;;;;;5083292;28;20260;-76
2022/03/16 13:08:17;;;;;;;;;;;333.10;2329.60;;;;;;5085614;28;19911;-76
2022/03/16 13:13:27;;;;;;;;;;;333.20;2329.60;;;;;;5077349;28;20060;-75
2022/03/16 13:15:53;;;;;;;;;;;333.30;2329.60;;;;;;5084045;28;19940;-75
2022/03/16 13:18:30;;;;;;;;;;;333.30;2329.60;;;;;;5086313;28;20330;-75
2022/03/16 13:20:56;;;;;;;;;;;333.10;2329.60;;;;;;5086386;28;19946;-75
2022/03/16 13:23:30;;;;;;;;;;;333.00;2329.60;;;;;;5081379;28;20340;-76
2022/03/16 13:26:10;;;;;;;;;;;333.00;2329.60;;;;;;5086356;28;19915;-76
2022/03/16 13:28:39;;;;;;;;;;;333.10;2329.60;;;;;;5085214;28;19905;-80
2022/03/16 13:31:05;;;;;;;;;;;333.10;2329.60;;;;;;5080210;28;19908;-80
2022/03/16 13:33:30;;;;;;;;;;;333.10;2329.60;;;;;;5079273;28;19942;-79
2022/03/16 13:36:12;;;;;;;;;;;333.20;2329.60;;;;;;5086219;28;19930;-76
2022/03/16 13:38:38;;;;;;;;;;;333.10;2329.60;;;;;;5085569;28;19919;-74
2022/03/16 13:41:13;;;;;;;;;;;333.20;2329.60;;;;;;5084397;28;19908;-76
2022/03/16 13:43:39;;;;;;;;;;;333.10;2329.60;;;;;;5082555;28;19957;-77
2022/03/16 13:46:10;;;;;;;;;;;333.10;2329.60;;;;;;5084329;28;20280;-78
2022/03/16 13:48:39;;;;;;;;;;;333.00;2329.60;;;;;;5082527;28;19949;-75
2022/03/16 13:51:06;;;;;;;;;;;333.00;2329.60;;;;;;5075143;28;19920;-75
2022/03/16 13:53:47;;;;;;;;;;;333.00;2329.60;;;;;;5074394;28;19942;-76
2022/03/16 13:56:13;;;;;;;;;;;333.00;2329.60;;;;;;5091870;28;19965;-76
2022/03/16 13:58:39;;;;;;;;;;;333.00;2329.60;;;;;;5086191;28;19916;-77
2022/03/16 14:01:05;;;;;;;;;;;333.00;2329.60;;;;;;5069082;28;19919;-78
2022/03/16 14:03:32;;;;;;;;;;;333.00;2329.60;;;;;;5078288;28;19913;-77